createdAt,value
2019-05-25T00:01:09.902Z,97499.09
2019-05-25T00:03:39.383Z,97503.72
2019-05-25T00:06:09.136Z,97504.49
2019-05-25T00:08:38.719Z,97501.36
2019-05-25T00:11:08.393Z,97501.93
2019-05-25T00:13:38.151Z,97494.95
2019-05-25T00:16:07.958Z,97494.00
2019-05-25T00:18:37.520Z,97492.52
2019-05-25T00:21:07.146Z,97496.09
2019-05-25T00:23:36.630Z,97496.73
2019-05-25T00:26:06.147Z,97497.97
2019-05-25T00:28:35.647Z,97498.27
2019-05-25T00:31:05.287Z,97503.28
2019-05-25T00:33:34.920Z,97505.39
2019-05-25T00:36:04.793Z,97508.24
2019-05-25T00:38:34.320Z,97513.34
2019-05-25T00:41:04.103Z,97512.34
2019-05-25T00:43:33.606Z,97505.84
2019-05-25T00:46:03.184Z,97500.00
2019-05-25T00:48:32.699Z,97507.95
2019-05-25T00:51:02.191Z,97512.69
2019-05-25T00:53:31.629Z,97509.48
2019-05-25T00:56:01.133Z,97504.74
2019-05-25T00:58:30.782Z,97502.86
2019-05-25T01:01:00.691Z,97507.77
2019-05-25T01:03:30.273Z,97506.44
2019-05-25T01:05:59.661Z,97502.17
2019-05-25T01:08:29.388Z,97500.47
2019-05-25T01:10:59.243Z,97498.68
2019-05-25T01:13:28.878Z,97499.98
2019-05-25T01:15:58.561Z,97489.80
2019-05-25T01:18:28.328Z,97493.83
2019-05-25T01:20:57.982Z,97496.97
2019-05-25T01:23:27.670Z,97497.89
2019-05-25T01:25:57.271Z,97499.23
2019-05-25T01:28:26.797Z,97495.81
2019-05-25T01:30:56.405Z,97503.69
2019-05-25T01:33:26.263Z,97498.66
2019-05-25T01:35:55.738Z,97501.22
2019-05-25T01:38:25.162Z,97506.05
2019-05-25T01:40:54.773Z,97508.02
2019-05-25T01:43:24.550Z,97508.39
2019-05-25T01:45:54.444Z,97510.09
2019-05-25T01:48:24.003Z,97513.51
2019-05-25T01:50:53.673Z,97509.42
2019-05-25T01:53:23.390Z,97514.72
2019-05-25T01:55:52.856Z,97512.77
2019-05-25T01:58:22.422Z,97509.47
2019-05-25T02:00:52.241Z,97513.12
2019-05-25T02:03:21.868Z,97513.31
2019-05-25T02:05:51.420Z,97513.67
2019-05-25T02:08:21.278Z,97517.05
2019-05-25T02:10:50.997Z,97520.47
2019-05-25T02:13:20.475Z,97523.07
2019-05-25T02:15:49.884Z,97523.88
2019-05-25T02:18:19.417Z,97520.21
2019-05-25T02:20:49.139Z,97515.65
2019-05-25T02:23:18.976Z,97516.84
2019-05-25T02:25:48.421Z,97520.07
2019-05-25T02:28:18.290Z,97531.63
2019-05-25T02:30:47.760Z,97519.88
2019-05-25T02:33:17.231Z,97522.38
2019-05-25T02:35:46.732Z,97524.25
2019-05-25T02:38:16.551Z,97526.52
2019-05-25T02:40:46.253Z,97535.36
2019-05-25T02:43:15.757Z,97537.78
2019-05-25T02:45:45.662Z,97538.73
2019-05-25T02:48:15.274Z,97542.38
2019-05-25T02:50:45.235Z,97545.07
2019-05-25T02:53:14.832Z,97553.09
2019-05-25T02:55:44.430Z,97559.88
2019-05-25T02:58:13.910Z,97563.75
2019-05-25T03:00:43.546Z,97567.93
2019-05-25T03:03:13.419Z,97559.56
2019-05-25T03:05:42.981Z,97572.31
2019-05-25T03:08:12.538Z,97571.13
2019-05-25T03:10:42.141Z,97571.89
2019-05-25T03:13:11.778Z,97577.04
2019-05-25T03:15:41.243Z,97578.91
2019-05-25T03:18:10.964Z,97578.05
2019-05-25T03:20:40.670Z,97571.45
2019-05-25T03:23:10.175Z,97576.72
2019-05-25T03:25:49.258Z,97576.14
2019-05-25T03:28:11.352Z,97578.83
2019-05-25T03:30:41.275Z,97570.94
2019-05-25T03:33:10.774Z,97574.57
2019-05-25T03:35:40.465Z,97569.32
2019-05-25T03:38:10.187Z,97580.48
2019-05-25T03:40:41.107Z,97575.59
2019-05-25T03:43:10.615Z,97580.91
2019-05-25T03:45:40.017Z,97577.84
2019-05-25T03:48:09.787Z,97572.27
2019-05-25T03:50:39.352Z,97574.17
2019-05-25T03:53:08.799Z,97577.47
2019-05-25T03:55:38.245Z,97566.80
2019-05-25T03:58:07.960Z,97570.58
2019-05-25T04:00:38.406Z,97575.65
2019-05-25T04:03:08.197Z,97578.32
2019-05-25T04:05:37.890Z,97571.75
2019-05-25T04:08:07.505Z,97578.75
2019-05-25T04:10:39.024Z,97578.47
2019-05-25T04:13:08.370Z,97575.84
2019-05-25T04:15:37.840Z,97572.16
2019-05-25T04:18:07.421Z,97571.70
2019-05-25T04:20:37.066Z,97574.61
2019-05-25T04:23:06.829Z,97569.05
2019-05-25T04:25:36.586Z,97572.06
2019-05-25T04:28:06.191Z,97576.59
2019-05-25T04:30:35.677Z,97580.47
2019-05-25T04:33:05.600Z,97575.57
2019-05-25T04:35:35.428Z,97588.55
2019-05-25T04:38:04.823Z,97585.44
2019-05-25T04:40:34.716Z,97581.55
2019-05-25T04:43:04.339Z,97591.74
2019-05-25T04:45:33.735Z,97595.51
2019-05-25T04:48:03.492Z,97593.97
2019-05-25T04:50:33.268Z,97590.39
2019-05-25T04:53:02.668Z,97598.55
2019-05-25T04:55:32.275Z,97600.23
2019-05-25T04:58:02.108Z,97609.48
2019-05-25T05:00:31.604Z,97607.23
2019-05-25T05:03:01.078Z,97604.62
2019-05-25T05:05:30.775Z,97612.91
2019-05-25T05:08:00.526Z,97611.41
2019-05-25T05:10:30.236Z,97613.38
2019-05-25T05:12:59.928Z,97618.84
2019-05-25T05:15:29.579Z,97612.80
2019-05-25T05:17:59.261Z,97613.00
2019-05-25T05:20:28.856Z,97614.04
2019-05-25T05:22:58.236Z,97617.45
2019-05-25T05:25:27.866Z,97619.92
2019-05-25T05:27:57.345Z,97618.77
2019-05-25T05:30:34.254Z,97620.37
2019-05-25T05:33:04.488Z,97620.95
2019-05-25T05:35:38.199Z,97623.41
2019-05-25T05:38:07.278Z,97628.70
2019-05-25T05:40:38.395Z,97632.97
2019-05-25T05:43:11.506Z,97637.45
2019-05-25T05:45:42.967Z,97635.27
2019-05-25T05:48:14.134Z,97635.09
2019-05-25T05:50:45.114Z,97649.48
2019-05-25T05:53:14.729Z,97642.44
2019-05-25T05:55:44.250Z,97643.73
2019-05-25T05:58:13.954Z,97650.97
2019-05-25T06:00:43.572Z,97647.78
2019-05-25T06:03:13.202Z,97650.33
2019-05-25T06:05:42.912Z,97653.27
2019-05-25T06:08:12.477Z,97658.22
2019-05-25T06:10:42.194Z,97657.45
2019-05-25T06:13:11.916Z,97648.33
2019-05-25T06:15:41.395Z,97664.94
2019-05-25T06:18:11.026Z,97657.25
2019-05-25T06:20:40.615Z,97653.86
2019-05-25T06:23:12.594Z,97651.70
2019-05-25T06:25:41.321Z,97646.98
2019-05-25T06:28:10.755Z,97643.97
2019-05-25T06:30:40.439Z,97645.42
2019-05-25T06:33:09.914Z,97648.70
2019-05-25T06:35:39.701Z,97652.73
2019-05-25T06:38:09.160Z,97653.28
2019-05-25T06:40:38.768Z,97647.84
2019-05-25T06:43:08.188Z,97649.41
2019-05-25T06:45:37.713Z,97642.31
2019-05-25T06:48:07.421Z,97650.26
2019-05-25T06:50:37.129Z,97652.18
2019-05-25T06:53:06.606Z,97647.95
2019-05-25T06:55:36.642Z,97652.42
2019-05-25T06:58:06.175Z,97652.73
2019-05-25T07:00:35.856Z,97654.72
2019-05-25T07:03:05.234Z,97655.11
2019-05-25T07:05:34.774Z,97651.27
2019-05-25T07:08:04.487Z,97655.32
2019-05-25T07:10:33.984Z,97654.08
2019-05-25T07:13:04.292Z,97648.50
2019-05-25T07:15:33.845Z,97650.45
2019-05-25T07:18:03.723Z,97645.02
2019-05-25T07:20:33.103Z,97648.68
2019-05-25T07:23:02.848Z,97649.41
2019-05-25T07:25:32.350Z,97647.75
2019-05-25T07:28:02.035Z,97645.34
2019-05-25T07:30:31.654Z,97646.91
2019-05-25T07:33:01.453Z,97646.05
2019-05-25T07:35:30.979Z,97656.53
2019-05-25T07:38:00.559Z,97647.69
2019-05-25T07:40:30.081Z,97656.66
2019-05-25T07:42:59.842Z,97651.66
2019-05-25T07:45:29.603Z,97652.48
2019-05-25T07:47:58.974Z,97648.21
2019-05-25T07:52:57.041Z,97659.03
2019-05-25T07:55:26.513Z,97649.25
2019-05-25T07:57:56.081Z,97653.34
2019-05-25T08:00:25.765Z,97650.55
2019-05-25T08:02:55.308Z,97650.42
2019-05-25T08:05:24.902Z,97652.10
2019-05-25T08:07:54.691Z,97659.79
2019-05-25T08:10:24.360Z,97654.63
2019-05-25T08:12:54.079Z,97649.97
2019-05-25T08:15:23.635Z,97654.81
2019-05-25T08:17:53.108Z,97660.42
2019-05-25T08:20:22.916Z,97655.84
2019-05-25T08:22:52.351Z,97659.72
2019-05-25T08:25:21.858Z,97658.35
2019-05-25T08:27:51.740Z,97654.14
2019-05-25T08:30:21.441Z,97662.30
2019-05-25T08:32:50.826Z,97653.64
2019-05-25T08:35:20.556Z,97657.65
2019-05-25T08:37:50.427Z,97658.19
2019-05-25T08:40:20.014Z,97665.20
2019-05-25T08:42:49.734Z,97667.27
2019-05-25T08:45:19.648Z,97663.35
2019-05-25T08:47:49.241Z,97661.37
2019-05-25T08:50:18.725Z,97670.33
2019-05-25T08:52:48.243Z,97670.48
2019-05-25T08:55:18.227Z,97668.14
2019-05-25T08:57:47.873Z,97669.47
2019-05-25T09:00:18.907Z,97669.61
2019-05-25T09:02:48.634Z,97664.88
2019-05-25T09:05:18.433Z,97671.00
2019-05-25T09:07:48.069Z,97675.31
2019-05-25T09:10:18.721Z,97668.45
2019-05-25T09:12:48.313Z,97666.91
2019-05-25T09:15:18.257Z,97674.96
2019-05-25T09:17:47.709Z,97681.16
2019-05-25T09:20:17.900Z,97671.52
2019-05-25T09:22:47.394Z,97671.63
2019-05-25T09:25:17.290Z,97664.08
2019-05-25T09:27:47.165Z,97679.67
2019-05-25T09:30:16.950Z,97676.22
2019-05-25T09:32:46.556Z,97679.56
2019-05-25T09:35:16.390Z,97678.25
2019-05-25T09:37:46.153Z,97680.88
2019-05-25T09:40:16.531Z,97672.48
2019-05-25T09:42:46.025Z,97683.29
2019-05-25T09:45:15.695Z,97677.72
2019-05-25T09:47:45.261Z,97686.92
2019-05-25T09:50:15.155Z,97692.55
2019-05-25T09:52:44.944Z,97694.63
2019-05-25T09:55:14.961Z,97695.16
2019-05-25T09:57:44.645Z,97697.50
2019-05-25T10:00:14.953Z,97688.97
2019-05-25T10:02:44.632Z,97703.34
2019-05-25T10:05:14.744Z,97707.31
2019-05-25T10:07:44.337Z,97707.34
2019-05-25T10:10:14.856Z,97708.22
2019-05-25T10:12:44.333Z,97706.64
2019-05-25T10:15:14.337Z,97704.71
2019-05-25T10:17:43.713Z,97703.36
2019-05-25T10:20:13.692Z,97706.34
2019-05-25T10:22:43.179Z,97702.73
2019-05-25T10:25:13.065Z,97698.75
2019-05-25T10:27:42.517Z,97694.05
2019-05-25T10:30:12.833Z,97689.66
2019-05-25T10:32:42.957Z,97688.19
2019-05-25T10:35:13.195Z,97687.06
2019-05-25T10:37:42.793Z,97676.08
2019-05-25T10:40:12.765Z,97672.11
2019-05-25T10:42:42.674Z,97666.30
2019-05-25T10:45:12.666Z,97677.31
2019-05-25T10:47:42.222Z,97671.00
2019-05-25T10:50:13.654Z,97647.96
2019-05-25T10:52:43.450Z,97665.81
2019-05-25T10:55:13.657Z,97663.91
2019-05-25T10:57:43.115Z,97671.61
2019-05-25T11:00:13.598Z,97665.59
2019-05-25T11:02:43.095Z,97665.69
2019-05-25T11:05:14.486Z,97665.69
2019-05-25T11:07:43.890Z,97673.59
2019-05-25T11:10:13.382Z,97666.41
2019-05-25T11:12:43.250Z,97667.16
2019-05-25T11:15:14.513Z,97663.14
2019-05-25T11:17:44.211Z,97665.34
2019-05-25T11:20:14.519Z,97670.79
2019-05-25T11:22:44.201Z,97664.93
2019-05-25T11:25:15.236Z,97656.75
2019-05-25T11:27:45.125Z,97651.73
2019-05-25T11:30:15.657Z,97646.34
2019-05-25T11:32:45.396Z,97649.72
2019-05-25T11:35:15.605Z,97641.22
2019-05-25T11:37:45.142Z,97647.00
2019-05-25T11:40:16.348Z,97647.03
2019-05-25T11:42:46.045Z,97644.97
2019-05-25T11:45:16.090Z,97638.34
2019-05-25T11:47:45.971Z,97636.02
2019-05-25T11:50:16.043Z,97637.76
2019-05-25T11:52:45.878Z,97630.09
2019-05-25T11:55:15.949Z,97631.48
2019-05-25T11:57:45.762Z,97636.74
2019-05-25T12:00:24.803Z,97635.61
2019-05-25T12:02:49.531Z,97642.84
2019-05-25T12:05:19.822Z,97650.23
2019-05-25T12:07:49.616Z,97648.33
2019-05-25T12:10:19.738Z,97647.70
2019-05-25T12:12:49.478Z,97644.88
2019-05-25T12:15:19.699Z,97644.28
2019-05-25T12:17:49.172Z,97642.41
2019-05-25T12:20:19.713Z,97645.63
2019-05-25T12:22:49.471Z,97647.47
2019-05-25T12:25:19.266Z,97647.94
2019-05-25T12:27:49.724Z,97645.83
2019-05-25T12:30:20.951Z,97645.59
2019-05-25T12:32:50.656Z,97648.02
2019-05-25T12:35:20.637Z,97637.59
2019-05-25T12:37:50.055Z,97641.86
2019-05-25T12:40:20.399Z,97640.03
2019-05-25T12:42:50.192Z,97647.97
2019-05-25T12:45:19.949Z,97647.72
2019-05-25T12:47:49.696Z,97642.90
2019-05-25T12:50:19.718Z,97636.97
2019-05-25T12:52:49.566Z,97643.92
2019-05-25T12:55:19.420Z,97647.25
2019-05-25T12:57:51.389Z,97638.69
2019-05-25T13:00:20.876Z,97642.42
2019-05-25T13:02:50.686Z,97649.55
2019-05-25T13:05:33.083Z,97644.03
2019-05-25T13:07:51.978Z,97642.00
2019-05-25T13:10:21.822Z,97646.75
2019-05-25T13:12:51.468Z,97646.80
2019-05-25T13:15:21.292Z,97651.64
2019-05-25T13:17:50.798Z,97659.73
2019-05-25T13:20:20.377Z,97651.73
2019-05-25T13:22:50.196Z,97658.64
2019-05-25T13:25:19.786Z,97655.74
2019-05-25T13:27:49.206Z,97652.52
2019-05-25T13:30:19.070Z,97657.55
2019-05-25T13:32:48.636Z,97657.91
2019-05-25T13:35:18.621Z,97653.64
2019-05-25T13:37:48.425Z,97654.64
2019-05-25T13:40:18.280Z,97651.50
2019-05-25T13:42:47.871Z,97644.30
2019-05-25T13:45:18.072Z,97644.96
2019-05-25T13:47:47.470Z,97645.06
2019-05-25T13:50:17.287Z,97643.08
2019-05-25T13:52:47.155Z,97637.32
2019-05-25T13:55:17.304Z,97631.95
2019-05-25T13:57:46.841Z,97637.80
2019-05-25T14:00:16.619Z,97632.83
2019-05-25T14:02:46.298Z,97645.05
2019-05-25T14:05:16.275Z,97645.48
2019-05-25T14:07:46.011Z,97645.84
2019-05-25T14:10:16.081Z,97644.32
2019-05-25T14:12:45.915Z,97652.59
2019-05-25T14:15:15.886Z,97651.98
2019-05-25T14:17:45.508Z,97652.75
2019-05-25T14:20:15.489Z,97646.94
2019-05-25T14:22:45.172Z,97649.94
2019-05-25T14:25:14.612Z,97649.73
2019-05-25T14:27:44.508Z,97643.48
2019-05-25T14:30:15.223Z,97643.48
2019-05-25T14:32:44.936Z,97648.64
2019-05-25T14:35:14.533Z,97644.39
2019-05-25T14:37:44.414Z,97648.45
2019-05-25T14:40:14.136Z,97652.39
2019-05-25T14:42:43.916Z,97655.31
2019-05-25T14:45:15.186Z,97652.47
2019-05-25T14:47:44.917Z,97649.45
2019-05-25T14:50:15.048Z,97658.55
2019-05-25T14:52:44.914Z,97658.36
2019-05-25T14:55:15.091Z,97663.42
2019-05-25T14:57:44.883Z,97667.73
2019-05-25T15:00:15.280Z,97669.53
2019-05-25T15:02:45.046Z,97675.89
2019-05-25T15:05:15.129Z,97672.48
2019-05-25T15:07:44.832Z,97671.70
2019-05-25T15:10:15.194Z,97671.41
2019-05-25T15:12:45.046Z,97671.80
2019-05-25T15:15:15.324Z,97675.06
2019-05-25T15:17:44.731Z,97675.45
2019-05-25T15:20:15.857Z,97673.48
2019-05-25T15:22:46.967Z,97676.91
2019-05-25T15:25:17.442Z,97670.53
2019-05-25T15:27:47.392Z,97670.33
2019-05-25T15:30:17.360Z,97677.72
2019-05-25T15:32:47.186Z,97677.73
2019-05-25T15:35:20.136Z,97672.88
2019-05-25T15:37:49.092Z,97676.46
2019-05-25T15:40:19.218Z,97680.08
2019-05-25T15:42:49.065Z,97674.08
2019-05-25T15:45:18.779Z,97673.55
2019-05-25T15:47:48.318Z,97672.84
2019-05-25T15:50:18.259Z,97672.14
2019-05-25T15:52:48.085Z,97670.22
2019-05-25T15:55:18.123Z,97674.82
2019-05-25T15:57:47.904Z,97674.37
2019-05-25T16:00:18.728Z,97675.91
2019-05-25T16:02:48.368Z,97673.38
2019-05-25T16:05:19.002Z,97675.42
2019-05-25T16:07:52.366Z,97677.05
2019-05-25T16:10:22.168Z,97674.02
2019-05-25T16:12:51.909Z,97675.41
2019-05-25T16:15:28.582Z,97681.05
2019-05-25T16:17:58.367Z,97686.45
2019-05-25T16:20:28.128Z,97688.94
2019-05-25T16:22:57.936Z,97690.41
2019-05-25T16:25:27.699Z,97687.64
2019-05-25T16:27:57.607Z,97693.92
2019-05-25T16:30:31.254Z,97695.59
2019-05-25T16:33:11.499Z,97699.90
2019-05-25T16:35:30.149Z,97696.08
2019-05-25T16:37:59.937Z,97701.72
2019-05-25T16:40:29.705Z,97702.86
2019-05-25T16:42:59.211Z,97705.73
2019-05-25T16:45:29.112Z,97701.81
2019-05-25T16:47:58.797Z,97708.38
2019-05-25T16:50:28.602Z,97712.14
2019-05-25T16:52:58.490Z,97712.09
2019-05-25T16:55:28.256Z,97710.25
2019-05-25T16:57:57.940Z,97704.77
2019-05-25T17:00:28.620Z,97713.36
2019-05-25T17:02:59.549Z,97716.04
2019-05-25T17:05:29.500Z,97712.16
2019-05-25T17:07:59.231Z,97715.49
2019-05-25T17:10:28.958Z,97715.70
2019-05-25T17:12:58.719Z,97726.91
2019-05-25T17:15:28.433Z,97730.72
2019-05-25T17:17:58.277Z,97726.52
2019-05-25T17:20:28.139Z,97726.41
2019-05-25T17:22:57.805Z,97731.77
2019-05-25T17:25:27.230Z,97726.97
2019-05-25T17:27:57.091Z,97724.09
2019-05-25T17:30:51.579Z,97729.96
2019-05-25T17:33:21.323Z,97725.50
2019-05-25T17:35:51.011Z,97728.11
2019-05-25T17:38:20.525Z,97729.94
2019-05-25T17:40:50.038Z,97732.15
2019-05-25T17:43:19.625Z,97734.27
2019-05-25T17:45:49.018Z,97733.66
2019-05-25T17:48:18.727Z,97731.00
2019-05-25T17:50:48.584Z,97735.11
2019-05-25T17:53:18.086Z,97732.34
2019-05-25T17:55:47.781Z,97734.66
2019-05-25T17:58:17.597Z,97733.58
2019-05-25T18:00:50.024Z,97740.86
2019-05-25T18:03:20.170Z,97728.58
2019-05-25T18:05:50.042Z,97728.09
2019-05-25T18:08:19.440Z,97731.02
2019-05-25T18:10:53.121Z,97734.66
2019-05-25T18:13:20.181Z,97739.98
2019-05-25T18:15:50.042Z,97747.27
2019-05-25T18:18:19.966Z,97750.91
2019-05-25T18:20:49.928Z,97753.45
2019-05-25T18:23:19.998Z,97749.55
2019-05-25T18:25:49.926Z,97748.81
2019-05-25T18:28:19.617Z,97757.58
2019-05-25T18:30:49.421Z,97761.07
2019-05-25T18:33:19.149Z,97759.73
2019-05-25T18:35:48.805Z,97763.13
2019-05-25T18:38:18.460Z,97763.70
2019-05-25T18:40:48.437Z,97769.39
2019-05-25T18:43:18.485Z,97773.63
2019-05-25T18:45:47.918Z,97785.39
2019-05-25T18:48:17.784Z,97786.99
2019-05-25T18:50:47.859Z,97787.47
2019-05-25T18:53:17.517Z,97793.64
2019-05-25T18:55:47.279Z,97791.42
2019-05-25T18:58:17.172Z,97805.62
2019-05-25T19:00:46.889Z,97807.44
2019-05-25T19:03:16.568Z,97804.00
2019-05-25T19:05:45.975Z,97814.40
2019-05-25T19:08:15.649Z,97816.00
2019-05-25T19:10:45.513Z,97815.61
2019-05-25T19:13:15.084Z,97814.40
2019-05-25T19:15:44.787Z,97821.80
2019-05-25T19:18:14.351Z,97831.41
2019-05-25T19:20:43.761Z,97840.74
2019-05-25T19:23:13.645Z,97844.86
2019-05-25T19:25:43.175Z,97848.23
2019-05-25T19:28:12.828Z,97851.84
2019-05-25T19:30:42.760Z,97855.22
2019-05-25T19:33:12.277Z,97850.40
2019-05-25T19:35:42.139Z,97858.48
2019-05-25T19:38:12.032Z,97857.11
2019-05-25T19:40:41.758Z,97850.05
2019-05-25T19:43:11.450Z,97854.05
2019-05-25T19:45:41.337Z,97856.56
2019-05-25T19:48:11.027Z,97856.56
2019-05-25T19:50:40.723Z,97860.20
2019-05-25T19:53:10.625Z,97854.41
2019-05-25T19:55:40.425Z,97855.58
2019-05-25T19:58:10.365Z,97850.72
2019-05-25T20:00:40.351Z,97856.75
2019-05-25T20:03:09.756Z,97858.44
2019-05-25T20:05:39.798Z,97860.39
2019-05-25T20:08:09.678Z,97865.30
2019-05-25T20:10:39.505Z,97864.19
2019-05-25T20:13:09.334Z,97865.28
2019-05-25T20:15:38.742Z,97856.12
2019-05-25T20:18:08.511Z,97860.81
2019-05-25T20:20:38.333Z,97863.71
2019-05-25T20:23:07.862Z,97872.09
2019-05-25T20:25:37.825Z,97867.94
2019-05-25T20:28:07.627Z,97872.00
2019-05-25T20:30:37.471Z,97875.24
2019-05-25T20:33:07.125Z,97880.45
2019-05-25T20:35:36.823Z,97876.22
2019-05-25T20:38:06.397Z,97875.98
2019-05-25T20:40:36.137Z,97875.24
2019-05-25T20:43:05.639Z,97881.55
2019-05-25T20:45:35.384Z,97885.38
2019-05-25T20:48:04.784Z,97888.63
2019-05-25T20:50:34.461Z,97887.17
2019-05-25T20:53:04.144Z,97884.85
2019-05-25T20:55:33.849Z,97883.41
2019-05-25T20:58:03.578Z,97885.71
2019-05-25T21:00:33.290Z,97889.31
2019-05-25T21:03:06.344Z,97891.73
2019-05-25T21:05:49.173Z,97891.45
2019-05-25T21:08:06.052Z,97895.45
2019-05-25T21:10:35.494Z,97897.87
2019-05-25T21:13:05.396Z,97907.55
2019-05-25T21:15:35.264Z,97915.75
2019-05-25T21:18:04.998Z,97906.16
2019-05-25T21:20:34.401Z,97905.10
2019-05-25T21:23:04.319Z,97907.30
2019-05-25T21:25:34.099Z,97907.38
2019-05-25T21:28:03.510Z,97911.18
2019-05-25T21:30:33.184Z,97914.03
2019-05-25T21:33:02.691Z,97906.73
2019-05-25T21:35:32.253Z,97906.09
2019-05-25T21:38:01.654Z,97913.95
2019-05-25T21:40:31.299Z,97909.78
2019-05-25T21:43:01.081Z,97914.46
2019-05-25T21:45:30.849Z,97909.03
2019-05-25T21:48:00.311Z,97911.58
2019-05-25T21:50:30.030Z,97904.78
2019-05-25T21:52:59.863Z,97906.00
2019-05-25T21:55:29.619Z,97908.50
2019-05-25T21:57:59.265Z,97907.21
2019-05-25T22:00:31.086Z,97902.64
2019-05-25T22:03:00.577Z,97903.28
2019-05-25T22:05:31.025Z,97905.95
2019-05-25T22:08:00.928Z,97904.55
2019-05-25T22:10:30.850Z,97904.77
2019-05-25T22:13:00.348Z,97899.09
2019-05-25T22:15:30.031Z,97903.80
2019-05-25T22:17:59.728Z,97900.31
2019-05-25T22:20:29.243Z,97897.76
2019-05-25T22:22:59.050Z,97892.80
2019-05-25T22:25:28.829Z,97890.49
2019-05-25T22:27:58.343Z,97896.09
2019-05-25T22:30:28.181Z,97898.65
2019-05-25T22:32:58.056Z,97899.45
2019-05-25T22:35:27.912Z,97907.60
2019-05-25T22:37:57.735Z,97899.40
2019-05-25T22:40:27.234Z,97903.08
2019-05-25T22:42:57.072Z,97894.17
2019-05-25T22:45:26.768Z,97905.58
2019-05-25T22:47:56.566Z,97898.92
2019-05-25T22:50:26.431Z,97893.95
2019-05-25T22:52:56.097Z,97900.25
2019-05-25T22:55:25.869Z,97905.75
2019-05-25T22:57:55.557Z,97902.45
2019-05-25T23:00:25.577Z,97904.46
2019-05-25T23:02:55.342Z,97906.19
2019-05-25T23:05:25.230Z,97908.74
2019-05-25T23:07:54.902Z,97908.42
2019-05-25T23:10:24.610Z,97899.14
2019-05-25T23:12:54.458Z,97902.88
2019-05-25T23:15:24.515Z,97902.23
2019-05-25T23:17:54.349Z,97908.45
2019-05-25T23:20:24.088Z,97907.80
2019-05-25T23:22:53.497Z,97908.66
2019-05-25T23:25:23.057Z,97914.39
2019-05-25T23:27:52.810Z,97913.66
2019-05-25T23:30:23.716Z,97916.31
2019-05-25T23:32:53.370Z,97910.00
2019-05-25T23:35:23.147Z,97909.62
2019-05-25T23:37:52.911Z,97909.62
2019-05-25T23:40:22.694Z,97914.09
2019-05-25T23:42:52.356Z,97911.77
2019-05-25T23:45:22.414Z,97909.39
2019-05-25T23:47:51.921Z,97917.00
2019-05-25T23:50:21.561Z,97918.44
2019-05-25T23:52:51.551Z,97918.33
2019-05-25T23:55:21.007Z,97917.30
2019-05-25T23:57:50.732Z,97915.61
